createdAt,value
2018-03-24T00:00:00.254Z,32.30
2018-03-24T00:02:27.886Z,34.63
2018-03-24T00:04:55.320Z,37.77
2018-03-24T00:07:22.738Z,37.10
2018-03-24T00:09:50.145Z,40.70
2018-03-24T00:12:17.561Z,39.27
2018-03-24T00:14:44.977Z,36.50
2018-03-24T00:17:12.370Z,36.17
2018-03-24T00:19:39.795Z,37.60
2018-03-24T00:22:07.201Z,42.20
2018-03-24T00:24:34.622Z,47.53
2018-03-24T00:27:02.043Z,49.73
2018-03-24T00:29:29.456Z,42.40
2018-03-24T00:31:56.861Z,37.00
2018-03-24T00:34:24.276Z,38.17
2018-03-24T00:36:51.678Z,37.23
2018-03-24T00:39:19.100Z,35.53
2018-03-24T00:41:46.514Z,37.33
2018-03-24T00:44:13.942Z,37.73
2018-03-24T00:46:41.345Z,36.60
2018-03-24T00:49:08.759Z,37.37
2018-03-24T00:51:36.173Z,41.70
2018-03-24T00:54:03.590Z,39.40
2018-03-24T00:56:30.998Z,40.30
2018-03-24T00:58:58.433Z,45.40
2018-03-24T01:01:25.865Z,48.47
2018-03-24T01:03:53.294Z,43.87
2018-03-24T01:06:20.771Z,46.53
2018-03-24T01:08:48.261Z,49.63
2018-03-24T01:11:15.797Z,43.63
2018-03-24T01:13:43.201Z,41.80
2018-03-24T01:16:10.613Z,42.60
2018-03-24T01:18:38.041Z,43.07
2018-03-24T01:21:05.572Z,43.10
2018-03-24T01:23:32.978Z,41.93
2018-03-24T01:26:00.386Z,42.87
2018-03-24T01:28:27.815Z,43.37
2018-03-24T01:30:55.230Z,44.43
2018-03-24T01:33:22.653Z,45.63
2018-03-24T01:35:50.194Z,45.13
2018-03-24T01:38:17.676Z,45.67
2018-03-24T01:40:45.133Z,41.53
2018-03-24T01:43:12.563Z,43.17
2018-03-24T01:45:39.974Z,44.73
2018-03-24T01:48:07.372Z,46.30
2018-03-24T01:50:34.899Z,41.80
2018-03-24T01:53:02.301Z,35.70
2018-03-24T01:55:29.706Z,35.60
2018-03-24T01:57:57.126Z,36.37
2018-03-24T02:00:24.834Z,38.77
2018-03-24T02:02:52.235Z,39.33
2018-03-24T02:05:19.634Z,35.37
2018-03-24T02:07:47.046Z,36.07
2018-03-24T02:10:14.454Z,40.00
2018-03-24T02:12:41.874Z,34.27
2018-03-24T02:15:09.271Z,36.00
2018-03-24T02:17:37.054Z,35.10
2018-03-24T02:20:04.460Z,35.20
2018-03-24T02:22:31.869Z,35.87
2018-03-24T02:24:59.741Z,34.67
2018-03-24T02:27:27.156Z,44.10
2018-03-24T02:29:54.596Z,44.40
2018-03-24T02:32:22.011Z,42.50
2018-03-24T02:34:49.534Z,45.67
2018-03-24T02:37:17.088Z,46.07
2018-03-24T02:39:44.509Z,37.67
2018-03-24T02:42:11.990Z,36.93
2018-03-24T02:44:39.431Z,34.90
2018-03-24T02:47:06.870Z,34.13
2018-03-24T02:49:34.266Z,32.37
2018-03-24T02:52:01.698Z,35.20
2018-03-24T02:54:29.122Z,40.23
2018-03-24T02:56:56.544Z,36.90
2018-03-24T02:59:23.966Z,32.33
2018-03-24T03:01:51.377Z,35.40
2018-03-24T03:04:18.788Z,46.83
2018-03-24T03:06:46.200Z,45.47
2018-03-24T03:09:13.614Z,39.63
2018-03-24T03:11:41.145Z,42.50
2018-03-24T03:14:08.544Z,37.07
2018-03-24T03:16:35.950Z,35.73
2018-03-24T03:19:03.377Z,36.57
2018-03-24T03:21:51.558Z,36.93
2018-03-24T03:24:18.974Z,41.27
2018-03-24T03:26:46.381Z,37.17
2018-03-24T03:29:13.805Z,41.70
2018-03-24T03:31:56.418Z,34.73
2018-03-24T03:34:23.840Z,36.40
2018-03-24T03:36:51.245Z,37.30
2018-03-24T03:39:18.662Z,36.20
2018-03-24T03:41:46.155Z,30.23
2018-03-24T03:44:13.579Z,26.77
2018-03-24T03:46:40.998Z,29.13
2018-03-24T03:49:09.025Z,30.30
2018-03-24T03:51:36.430Z,33.90
2018-03-24T03:54:03.849Z,30.10
2018-03-24T03:56:31.283Z,30.17
2018-03-24T03:58:58.694Z,29.27
2018-03-24T04:01:26.099Z,29.13
2018-03-24T04:03:53.866Z,29.83
2018-03-24T04:06:21.270Z,29.77
2018-03-24T04:08:48.670Z,29.60
2018-03-24T04:11:16.094Z,29.37
2018-03-24T04:13:43.511Z,31.73
2018-03-24T04:16:10.919Z,33.13
2018-03-24T04:18:38.342Z,35.50
2018-03-24T04:21:05.746Z,34.57
2018-03-24T04:23:33.153Z,33.27
2018-03-24T04:26:00.573Z,30.40
2018-03-24T04:28:27.994Z,28.43
2018-03-24T04:30:55.459Z,30.03
2018-03-24T04:33:22.916Z,32.73
2018-03-24T04:35:50.440Z,35.43
2018-03-24T04:38:18.094Z,35.23
2018-03-24T04:40:45.534Z,36.83
2018-03-24T04:43:12.937Z,30.00
2018-03-24T04:45:40.388Z,31.30
2018-03-24T04:48:07.793Z,33.13
2018-03-24T04:50:35.211Z,34.40
2018-03-24T04:53:02.611Z,31.67
2018-03-24T04:55:30.066Z,35.73
2018-03-24T04:57:57.482Z,28.07
2018-03-24T05:00:24.890Z,28.80
2018-03-24T05:02:52.341Z,27.87
2018-03-24T05:05:19.808Z,37.40
2018-03-24T05:07:48.182Z,36.17
2018-03-24T05:10:15.609Z,35.60
2018-03-24T05:12:43.038Z,32.80
2018-03-24T05:15:10.463Z,33.97
2018-03-24T05:17:37.896Z,32.37
2018-03-24T05:20:05.315Z,37.57
2018-03-24T05:22:32.718Z,36.77
2018-03-24T05:25:00.149Z,29.47
2018-03-24T05:27:27.569Z,34.03
2018-03-24T05:29:55.009Z,31.03
2018-03-24T05:32:22.472Z,32.50
2018-03-24T05:34:49.891Z,32.53
2018-03-24T05:37:17.374Z,30.13
2018-03-24T05:39:44.846Z,30.57
2018-03-24T05:42:12.350Z,26.50
2018-03-24T05:44:39.809Z,32.27
2018-03-24T05:47:07.373Z,34.97
2018-03-24T05:49:34.787Z,38.67
2018-03-24T05:52:02.193Z,27.30
2018-03-24T05:54:29.605Z,27.63
2018-03-24T05:56:57.025Z,26.10
2018-03-24T05:59:24.550Z,30.27
2018-03-24T06:01:51.947Z,27.57
2018-03-24T06:04:19.360Z,27.87
2018-03-24T06:06:46.768Z,23.83
2018-03-24T06:09:14.317Z,25.30
2018-03-24T06:11:41.721Z,23.90
2018-03-24T06:14:09.130Z,26.20
2018-03-24T06:16:36.540Z,23.07
2018-03-24T06:19:03.939Z,27.33
2018-03-24T06:21:31.366Z,30.33
2018-03-24T06:23:58.791Z,25.60
2018-03-24T06:26:26.246Z,24.13
2018-03-24T06:28:53.625Z,32.13
2018-03-24T06:31:21.404Z,28.33
2018-03-24T06:33:48.863Z,27.17
2018-03-24T06:36:17.302Z,24.80
2018-03-24T06:38:44.729Z,25.73
2018-03-24T06:41:12.160Z,25.43
2018-03-24T06:43:39.568Z,28.93
2018-03-24T06:46:07.159Z,25.87
2018-03-24T06:48:34.538Z,30.10
2018-03-24T06:51:01.949Z,31.00
2018-03-24T06:53:29.369Z,28.27
2018-03-24T06:55:56.773Z,31.77
2018-03-24T06:58:24.190Z,27.77
2018-03-24T07:00:51.606Z,30.50
2018-03-24T07:03:19.022Z,27.37
2018-03-24T07:05:46.438Z,30.90
2018-03-24T07:08:13.869Z,30.13
2018-03-24T07:10:41.266Z,29.87
2018-03-24T07:13:08.686Z,29.53
2018-03-24T07:15:36.102Z,29.77
2018-03-24T07:18:04.097Z,30.60
2018-03-24T07:20:31.475Z,34.03
2018-03-24T07:22:58.904Z,30.10
2018-03-24T07:25:26.325Z,28.50
2018-03-24T07:27:53.749Z,34.23
2018-03-24T07:30:21.172Z,31.90
2018-03-24T07:32:48.591Z,35.23
2018-03-24T07:35:16.001Z,45.27
2018-03-24T07:37:43.765Z,41.80
2018-03-24T07:40:11.181Z,38.17
2018-03-24T07:42:38.589Z,42.97
2018-03-24T07:45:06.022Z,42.73
2018-03-24T07:47:33.493Z,43.03
2018-03-24T07:50:00.865Z,43.27
2018-03-24T07:52:28.279Z,39.63
2018-03-24T07:54:55.702Z,40.03
2018-03-24T07:57:23.113Z,39.03
2018-03-24T07:59:50.801Z,36.80
2018-03-24T08:02:18.218Z,40.33
2018-03-24T08:04:45.625Z,38.10
2018-03-24T08:07:13.056Z,39.30
2018-03-24T08:09:40.529Z,42.70
2018-03-24T08:12:07.888Z,36.00
2018-03-24T08:14:35.324Z,37.83
2018-03-24T08:17:02.745Z,40.90
2018-03-24T08:19:30.159Z,37.13
2018-03-24T08:21:57.565Z,38.27
2018-03-24T08:24:25.010Z,39.00
2018-03-24T08:26:52.566Z,36.17
2018-03-24T08:29:20.016Z,37.67
2018-03-24T08:31:47.416Z,35.20
2018-03-24T08:34:15.138Z,38.63
2018-03-24T08:36:42.545Z,34.43
2018-03-24T08:39:09.950Z,34.17
2018-03-24T08:41:37.378Z,32.97
2018-03-24T08:44:04.793Z,35.73
2018-03-24T08:46:32.202Z,31.10
2018-03-24T08:48:59.637Z,33.87
2018-03-24T08:51:27.063Z,33.10
2018-03-24T08:53:54.461Z,35.13
2018-03-24T08:56:21.893Z,35.40
2018-03-24T08:58:49.289Z,33.33
2018-03-24T09:01:16.712Z,35.07
2018-03-24T09:03:44.141Z,35.43
2018-03-24T09:06:11.549Z,35.37
2018-03-24T09:08:39.121Z,33.53
2018-03-24T09:11:06.538Z,35.50
2018-03-24T09:13:33.941Z,31.83
2018-03-24T09:16:01.360Z,36.07
2018-03-24T09:18:28.775Z,32.87
2018-03-24T09:20:56.200Z,34.37
2018-03-24T09:23:23.618Z,31.43
2018-03-24T09:25:51.049Z,30.80
2018-03-24T09:28:18.488Z,31.70
2018-03-24T09:30:45.893Z,32.73
2018-03-24T09:33:13.301Z,35.03
2018-03-24T09:35:40.722Z,33.60
2018-03-24T09:38:08.143Z,35.40
2018-03-24T09:40:35.565Z,34.83
2018-03-24T09:43:02.978Z,35.57
2018-03-24T09:45:30.393Z,34.03
2018-03-24T09:47:57.798Z,36.63
2018-03-24T09:50:25.222Z,36.37
2018-03-24T09:52:52.770Z,37.03
2018-03-24T09:55:20.051Z,33.23
2018-03-24T09:57:47.458Z,35.60
2018-03-24T10:00:14.895Z,38.43
2018-03-24T10:02:42.297Z,36.27
2018-03-24T10:05:09.714Z,37.50
2018-03-24T10:07:37.133Z,42.27
2018-03-24T10:10:04.541Z,39.63
2018-03-24T10:12:31.974Z,39.47
2018-03-24T10:14:59.384Z,38.97
2018-03-24T10:17:26.816Z,36.70
2018-03-24T10:19:54.222Z,39.77
2018-03-24T10:22:44.321Z,41.80
2018-03-24T10:25:11.740Z,38.30
2018-03-24T10:27:39.441Z,37.57
2018-03-24T10:30:06.853Z,39.73
2018-03-24T10:32:34.257Z,36.73
2018-03-24T10:35:07.222Z,36.27
2018-03-24T10:37:40.389Z,36.37
2018-03-24T10:40:07.818Z,32.57
2018-03-24T10:42:35.228Z,36.37
2018-03-24T10:45:02.681Z,36.33
2018-03-24T10:47:30.087Z,32.03
2018-03-24T10:49:57.509Z,31.07
2018-03-24T10:52:24.951Z,29.97
2018-03-24T10:54:52.354Z,33.63
2018-03-24T10:57:19.764Z,34.40
2018-03-24T10:59:47.180Z,32.03
2018-03-24T11:02:14.597Z,33.80
2018-03-24T11:04:42.953Z,29.17
2018-03-24T11:07:10.375Z,34.50
2018-03-24T11:09:37.818Z,32.03
2018-03-24T11:12:05.354Z,34.37
2018-03-24T11:14:32.761Z,35.70
2018-03-24T11:17:00.185Z,37.20
2018-03-24T11:19:27.609Z,32.60
2018-03-24T11:21:55.049Z,35.80
2018-03-24T11:24:22.473Z,35.23
2018-03-24T11:26:49.901Z,32.63
2018-03-24T11:29:17.302Z,34.70
2018-03-24T11:31:44.718Z,37.00
2018-03-24T11:34:12.267Z,35.00
2018-03-24T11:36:39.678Z,35.37
2018-03-24T11:39:07.135Z,34.80
2018-03-24T11:41:34.550Z,36.90
2018-03-24T11:44:01.981Z,36.43
2018-03-24T11:46:29.428Z,37.63
2018-03-24T11:48:56.858Z,39.73
2018-03-24T11:51:24.288Z,31.90
2018-03-24T11:53:51.698Z,34.87
2018-03-24T11:56:19.262Z,33.33
2018-03-24T11:58:46.720Z,35.30
2018-03-24T12:01:14.255Z,34.83
2018-03-24T12:03:41.677Z,37.20
2018-03-24T12:06:09.123Z,32.70
2018-03-24T12:08:36.542Z,35.00
2018-03-24T12:11:03.954Z,34.07
2018-03-24T12:13:31.373Z,28.63
2018-03-24T12:15:58.813Z,29.20
2018-03-24T12:18:26.226Z,26.73
2018-03-24T12:20:53.649Z,30.37
2018-03-24T12:23:21.062Z,29.90
2018-03-24T12:25:48.762Z,30.27
2018-03-24T12:28:16.194Z,27.87
2018-03-24T12:30:43.606Z,28.67
2018-03-24T12:33:11.035Z,27.00
2018-03-24T12:35:38.453Z,28.23
2018-03-24T12:38:05.887Z,28.00
2018-03-24T12:40:33.305Z,26.97
2018-03-24T12:43:00.733Z,28.10
2018-03-24T12:45:28.145Z,25.33
2018-03-24T12:47:55.574Z,24.70
2018-03-24T12:50:23.002Z,25.90
2018-03-24T12:52:50.451Z,26.97
2018-03-24T12:55:17.863Z,23.33
2018-03-24T12:57:45.305Z,24.80
2018-03-24T13:00:12.753Z,20.30
2018-03-24T13:02:40.186Z,19.10
2018-03-24T13:05:07.600Z,17.57
2018-03-24T13:07:35.022Z,19.57
2018-03-24T13:10:02.485Z,17.13
2018-03-24T13:12:29.894Z,18.27
2018-03-24T13:14:57.317Z,16.57
2018-03-24T13:17:24.722Z,17.13
2018-03-24T13:19:52.145Z,17.07
2018-03-24T13:22:19.568Z,18.07
2018-03-24T13:24:47.006Z,18.47
2018-03-24T13:27:14.418Z,19.67
2018-03-24T13:29:41.831Z,19.50
2018-03-24T13:32:09.258Z,18.77
2018-03-24T13:34:36.667Z,23.13
2018-03-24T13:37:04.101Z,18.97
2018-03-24T13:39:31.519Z,17.17
2018-03-24T13:41:58.947Z,26.63
2018-03-24T13:44:26.382Z,21.47
2018-03-24T13:46:53.811Z,18.63
2018-03-24T13:49:21.246Z,20.60
2018-03-24T13:51:48.773Z,21.07
2018-03-24T13:54:16.193Z,20.80
2018-03-24T13:56:43.613Z,20.77
2018-03-24T13:59:11.062Z,19.93
2018-03-24T14:01:38.465Z,20.17
2018-03-24T14:04:05.878Z,21.43
2018-03-24T14:06:33.300Z,20.83
2018-03-24T14:09:00.735Z,20.90
2018-03-24T14:11:28.137Z,21.63
2018-03-24T14:13:55.577Z,21.83
2018-03-24T14:16:23.013Z,22.77
2018-03-24T14:18:50.430Z,20.80
2018-03-24T14:21:17.871Z,21.20
2018-03-24T14:23:45.340Z,23.47
2018-03-24T14:26:12.722Z,21.67
2018-03-24T14:28:40.186Z,21.57
2018-03-24T14:31:07.578Z,22.27
2018-03-24T14:33:34.989Z,21.77
2018-03-24T14:36:02.393Z,21.40
2018-03-24T14:38:29.831Z,20.90
2018-03-24T14:40:57.233Z,22.40
2018-03-24T14:43:24.653Z,21.30
2018-03-24T14:45:52.097Z,22.97
2018-03-24T14:48:19.509Z,20.77
2018-03-24T14:50:46.941Z,20.27
2018-03-24T14:53:14.357Z,18.97
2018-03-24T14:55:41.790Z,17.80
2018-03-24T14:58:09.221Z,18.77
2018-03-24T15:00:36.650Z,18.77
2018-03-24T15:03:04.081Z,18.60
2018-03-24T15:05:31.485Z,20.00
2018-03-24T15:07:58.925Z,19.07
2018-03-24T15:10:26.325Z,18.30
2018-03-24T15:12:53.763Z,19.17
2018-03-24T15:15:21.165Z,19.33
2018-03-24T15:17:48.574Z,18.07
2018-03-24T15:20:16.006Z,15.67
2018-03-24T15:22:43.448Z,16.53
2018-03-24T15:25:10.857Z,15.87
2018-03-24T15:27:38.258Z,17.87
2018-03-24T15:30:17.374Z,15.90
2018-03-24T15:32:50.693Z,15.83
2018-03-24T15:35:32.712Z,16.43
2018-03-24T15:38:00.118Z,16.43
2018-03-24T15:40:27.549Z,16.03
2018-03-24T15:42:54.957Z,14.93
2018-03-24T15:45:22.394Z,16.53
2018-03-24T15:47:49.827Z,15.13
2018-03-24T15:50:17.254Z,15.57
2018-03-24T15:52:44.685Z,16.10
2018-03-24T15:55:12.093Z,14.97
2018-03-24T15:57:39.573Z,15.47
2018-03-24T16:00:06.985Z,15.60
2018-03-24T16:02:34.458Z,17.40
2018-03-24T16:05:01.878Z,18.60
2018-03-24T16:07:29.301Z,16.97
2018-03-24T16:09:56.705Z,15.90
2018-03-24T16:12:24.133Z,15.80
2018-03-24T16:14:51.553Z,17.47
2018-03-24T16:17:18.960Z,18.27
2018-03-24T16:19:46.392Z,19.33
2018-03-24T16:22:13.821Z,17.23
2018-03-24T16:24:41.246Z,18.57
2018-03-24T16:27:08.653Z,15.37
2018-03-24T16:29:36.094Z,17.17
2018-03-24T16:32:03.497Z,16.23
2018-03-24T16:34:30.930Z,14.63
2018-03-24T16:36:58.358Z,18.30
2018-03-24T16:39:25.762Z,14.80
2018-03-24T16:41:53.249Z,15.40
2018-03-24T16:44:20.605Z,15.43
2018-03-24T16:46:48.057Z,14.10
2018-03-24T16:49:15.464Z,15.77
2018-03-24T16:51:42.866Z,15.70
2018-03-24T16:54:10.308Z,16.13
2018-03-24T16:56:37.725Z,17.23
2018-03-24T16:59:05.153Z,15.93
2018-03-24T17:01:32.566Z,17.27
2018-03-24T17:04:00.002Z,15.67
2018-03-24T17:06:27.406Z,15.17
2018-03-24T17:08:54.833Z,15.33
2018-03-24T17:11:22.245Z,14.53
2018-03-24T17:13:49.683Z,17.67
2018-03-24T17:16:17.112Z,13.97
2018-03-24T17:18:44.519Z,15.03
2018-03-24T17:21:11.949Z,15.53
2018-03-24T17:23:39.372Z,15.30
2018-03-24T17:26:06.803Z,15.17
2018-03-24T17:28:34.206Z,15.07
2018-03-24T17:31:01.632Z,15.10
2018-03-24T17:33:29.031Z,15.60
2018-03-24T17:35:56.442Z,16.87
2018-03-24T17:38:23.861Z,13.37
2018-03-24T17:40:51.286Z,12.77
2018-03-24T17:43:18.704Z,14.47
2018-03-24T17:45:46.126Z,13.87
2018-03-24T17:48:13.545Z,15.70
2018-03-24T17:50:40.950Z,14.93
2018-03-24T17:53:08.353Z,13.70
2018-03-24T17:55:35.757Z,14.63
2018-03-24T17:58:03.174Z,13.63
2018-03-24T18:00:30.582Z,14.50
2018-03-24T18:02:58.009Z,13.83
2018-03-24T18:05:25.431Z,102.70
2018-03-24T18:07:52.880Z,17.33
2018-03-24T18:10:20.326Z,16.00
2018-03-24T18:12:47.781Z,17.73
2018-03-24T18:15:15.182Z,16.47
2018-03-24T18:17:42.597Z,14.83
2018-03-24T18:20:10.001Z,19.40
2018-03-24T18:22:37.421Z,20.77
2018-03-24T18:25:04.830Z,20.83
2018-03-24T18:27:32.358Z,20.83
2018-03-24T18:29:59.805Z,16.53
2018-03-24T18:32:27.170Z,16.33
2018-03-24T18:34:54.590Z,15.33
2018-03-24T18:37:21.986Z,16.77
2018-03-24T18:39:49.430Z,17.13
2018-03-24T18:42:16.853Z,18.83
2018-03-24T18:44:44.254Z,19.77
2018-03-24T18:47:11.683Z,23.17
2018-03-24T18:49:39.141Z,19.20
2018-03-24T18:52:06.554Z,17.60
2018-03-24T18:54:33.949Z,18.73
2018-03-24T18:57:01.482Z,17.23
2018-03-24T18:59:28.881Z,15.80
2018-03-24T19:01:56.289Z,17.83
2018-03-24T19:04:23.746Z,18.17
2018-03-24T19:06:51.163Z,18.07
2018-03-24T19:09:18.576Z,17.50
2018-03-24T19:11:46.017Z,18.57
2018-03-24T19:14:13.412Z,18.23
2018-03-24T19:16:40.833Z,22.43
2018-03-24T19:19:09.775Z,21.20
2018-03-24T19:21:37.220Z,18.27
2018-03-24T19:24:04.632Z,21.73
2018-03-24T19:26:32.042Z,22.77
2018-03-24T19:28:59.447Z,19.67
2018-03-24T19:31:26.899Z,19.77
2018-03-24T19:33:54.267Z,20.90
2018-03-24T19:36:21.679Z,20.73
2018-03-24T19:38:49.084Z,21.43
2018-03-24T19:41:16.514Z,19.90
2018-03-24T19:43:43.921Z,20.70
2018-03-24T19:46:11.347Z,22.73
2018-03-24T19:48:38.746Z,22.37
2018-03-24T19:51:06.191Z,19.90
2018-03-24T19:53:33.617Z,20.57
2018-03-24T19:56:01.039Z,19.13
2018-03-24T19:58:28.443Z,22.07
2018-03-24T20:00:55.860Z,23.27
2018-03-24T20:03:23.309Z,23.43
2018-03-24T20:05:50.685Z,21.80
2018-03-24T20:08:18.099Z,18.20
2018-03-24T20:10:45.535Z,20.33
2018-03-24T20:13:12.938Z,19.17
2018-03-24T20:15:40.382Z,19.17
2018-03-24T20:18:07.784Z,19.90
2018-03-24T20:20:35.206Z,21.50
2018-03-24T20:23:02.613Z,21.00
2018-03-24T20:25:30.018Z,20.60
2018-03-24T20:27:57.507Z,19.00
2018-03-24T20:30:24.892Z,20.63
2018-03-24T20:32:52.397Z,19.50
2018-03-24T20:35:19.979Z,20.93
2018-03-24T20:37:47.477Z,22.03
2018-03-24T20:40:14.878Z,27.50
2018-03-24T20:42:42.311Z,25.60
2018-03-24T20:45:09.740Z,27.77
2018-03-24T20:47:37.158Z,23.10
2018-03-24T20:50:04.564Z,21.77
2018-03-24T20:52:31.991Z,27.80
2018-03-24T20:54:59.385Z,22.87
2018-03-24T20:57:26.846Z,20.47
2018-03-24T20:59:54.286Z,18.93
2018-03-24T21:02:21.697Z,19.03
2018-03-24T21:04:49.115Z,19.00
2018-03-24T21:07:16.557Z,19.17
2018-03-24T21:09:43.959Z,19.70
2018-03-24T21:12:11.550Z,20.83
2018-03-24T21:14:38.957Z,19.70
2018-03-24T21:17:06.382Z,19.80
2018-03-24T21:19:33.786Z,19.07
2018-03-24T21:22:01.201Z,18.60
2018-03-24T21:24:28.609Z,19.80
2018-03-24T21:26:56.188Z,18.57
2018-03-24T21:29:23.786Z,20.63
2018-03-24T21:31:51.278Z,22.57
2018-03-24T21:34:18.685Z,21.87
2018-03-24T21:36:46.125Z,22.37
2018-03-24T21:39:13.542Z,19.17
2018-03-24T21:41:40.946Z,20.77
2018-03-24T21:44:08.375Z,18.73
2018-03-24T21:46:35.798Z,25.57
2018-03-24T21:49:03.197Z,20.77
2018-03-24T21:51:30.654Z,23.30
2018-03-24T21:53:58.127Z,19.67
2018-03-24T21:56:25.552Z,19.37
2018-03-24T21:58:52.983Z,18.77
2018-03-24T22:01:20.387Z,19.10
2018-03-24T22:03:47.821Z,19.33
2018-03-24T22:06:15.331Z,19.77
2018-03-24T22:08:42.766Z,24.03
2018-03-24T22:11:10.267Z,24.27
2018-03-24T22:13:37.701Z,23.20
2018-03-24T22:16:05.117Z,19.67
2018-03-24T22:18:32.535Z,23.10
2018-03-24T22:20:59.973Z,26.90
2018-03-24T22:23:27.414Z,25.33
2018-03-24T22:25:54.841Z,25.47
2018-03-24T22:28:22.278Z,21.63
2018-03-24T22:30:49.731Z,25.63
2018-03-24T22:33:17.495Z,27.80
2018-03-24T22:35:44.913Z,26.80
2018-03-24T22:38:12.366Z,21.00
2018-03-24T22:40:39.845Z,21.20
2018-03-24T22:43:07.275Z,19.40
2018-03-24T22:45:34.677Z,20.07
2018-03-24T22:48:02.194Z,27.13
2018-03-24T22:50:29.603Z,27.17
2018-03-24T22:52:57.001Z,26.00
2018-03-24T22:55:24.453Z,25.47
2018-03-24T22:57:51.916Z,19.50
2018-03-24T23:00:19.482Z,19.57
2018-03-24T23:02:47.249Z,18.80
2018-03-24T23:05:14.658Z,18.97
2018-03-24T23:07:42.066Z,19.33
2018-03-24T23:10:09.507Z,18.93
2018-03-24T23:12:36.979Z,18.63
2018-03-24T23:15:04.410Z,18.73
2018-03-24T23:17:31.835Z,18.63
2018-03-24T23:19:59.237Z,19.73
2018-03-24T23:22:26.638Z,18.87
2018-03-24T23:24:54.049Z,18.43
2018-03-24T23:27:21.472Z,19.33
2018-03-24T23:29:48.883Z,19.50
2018-03-24T23:32:16.293Z,18.90
2018-03-24T23:34:43.697Z,19.20
2018-03-24T23:37:11.114Z,21.07
2018-03-24T23:39:38.602Z,21.73
2018-03-24T23:42:06.000Z,20.83
2018-03-24T23:44:33.397Z,20.07
2018-03-24T23:47:00.812Z,19.37
2018-03-24T23:49:28.310Z,20.77
2018-03-24T23:51:55.759Z,22.73
2018-03-24T23:54:23.463Z,28.47
2018-03-24T23:56:50.899Z,29.27
2018-03-24T23:59:18.337Z,25.07
